createdAt,value
2018-06-20T00:00:10.753Z,61.71
2018-06-20T00:00:41.929Z,62.48
2018-06-20T00:01:13.097Z,62.13
2018-06-20T00:01:44.291Z,62.64
2018-06-20T00:02:15.470Z,62.45
2018-06-20T00:02:46.692Z,62.53
2018-06-20T00:03:17.893Z,63.18
2018-06-20T00:03:49.118Z,63.12
2018-06-20T00:04:20.357Z,62.77
2018-06-20T00:04:51.535Z,62.94
2018-06-20T00:05:22.767Z,62.81
2018-06-20T00:05:53.997Z,63.21
2018-06-20T00:06:25.191Z,63.32
2018-06-20T00:06:56.424Z,63.55
2018-06-20T00:07:27.715Z,63.13
2018-06-20T00:07:58.948Z,62.96
2018-06-20T00:08:30.126Z,63.00
2018-06-20T00:09:01.354Z,63.19
2018-06-20T00:09:32.551Z,63.56
2018-06-20T00:10:03.776Z,63.63
2018-06-20T00:10:35.020Z,62.87
2018-06-20T00:11:06.207Z,63.02
2018-06-20T00:11:37.384Z,63.37
2018-06-20T00:12:08.567Z,63.43
2018-06-20T00:12:39.744Z,62.66
2018-06-20T00:13:10.968Z,63.03
2018-06-20T00:13:42.205Z,63.57
2018-06-20T00:14:13.443Z,63.33
2018-06-20T00:14:44.641Z,63.62
2018-06-20T00:15:15.905Z,63.61
2018-06-20T00:15:47.092Z,63.20
2018-06-20T00:16:18.270Z,63.49
2018-06-20T00:16:49.497Z,64.05
2018-06-20T00:17:20.730Z,63.66
2018-06-20T00:17:51.915Z,64.20
2018-06-20T00:18:23.148Z,64.37
2018-06-20T00:18:54.332Z,63.58
2018-06-20T00:19:25.508Z,64.38
2018-06-20T00:19:56.740Z,63.82
2018-06-20T00:20:27.964Z,63.62
2018-06-20T00:20:59.144Z,64.25
2018-06-20T00:21:30.368Z,64.19
2018-06-20T00:22:01.559Z,64.36
2018-06-20T00:22:32.793Z,64.47
2018-06-20T00:23:03.980Z,64.29
2018-06-20T00:23:35.207Z,64.35
2018-06-20T00:24:06.385Z,64.61
2018-06-20T00:24:37.551Z,64.68
2018-06-20T00:25:08.785Z,64.67
2018-06-20T00:25:40.011Z,64.15
2018-06-20T00:26:11.254Z,63.79
2018-06-20T00:26:42.432Z,64.19
2018-06-20T00:27:13.613Z,64.23
2018-06-20T00:27:44.790Z,64.58
2018-06-20T00:28:16.078Z,64.26
2018-06-20T00:28:47.268Z,64.43
2018-06-20T00:29:18.451Z,64.87
2018-06-20T00:29:49.691Z,64.45
2018-06-20T00:30:20.880Z,64.89
2018-06-20T00:30:52.054Z,64.53
2018-06-20T00:31:23.285Z,64.95
2018-06-20T00:31:54.479Z,65.11
2018-06-20T00:32:25.652Z,64.84
2018-06-20T00:32:56.833Z,65.34
2018-06-20T00:33:28.054Z,65.25
2018-06-20T00:33:59.237Z,65.64
2018-06-20T00:34:30.425Z,65.53
2018-06-20T00:35:01.615Z,65.87
2018-06-20T00:35:32.801Z,66.09
2018-06-20T00:36:04.036Z,66.18
2018-06-20T00:36:35.285Z,65.70
2018-06-20T00:37:06.474Z,66.22
2018-06-20T00:37:37.648Z,65.88
2018-06-20T00:38:08.825Z,66.00
2018-06-20T00:38:40.032Z,65.76
2018-06-20T00:39:11.637Z,66.30
2018-06-20T00:39:42.825Z,66.34
2018-06-20T00:40:14.006Z,66.16
2018-06-20T00:40:45.218Z,66.34
2018-06-20T00:41:16.396Z,65.95
2018-06-20T00:41:47.621Z,65.97
2018-06-20T00:42:18.857Z,66.07
2018-06-20T00:42:50.043Z,66.54
2018-06-20T00:43:21.220Z,66.40
2018-06-20T00:43:52.449Z,66.50
2018-06-20T00:44:23.637Z,66.15
2018-06-20T00:44:54.864Z,66.69
2018-06-20T00:45:26.044Z,66.41
2018-06-20T00:45:57.220Z,66.59
2018-06-20T00:46:28.480Z,66.49
2018-06-20T00:46:59.740Z,66.36
2018-06-20T00:47:30.977Z,66.06
2018-06-20T00:48:02.154Z,65.96
2018-06-20T00:48:33.346Z,65.48
2018-06-20T00:49:04.527Z,65.60
2018-06-20T00:49:35.735Z,65.70
2018-06-20T00:50:06.921Z,65.70
2018-06-20T00:50:38.169Z,65.71
2018-06-20T00:51:09.352Z,65.32
2018-06-20T00:51:40.528Z,66.20
2018-06-20T00:52:11.704Z,66.21
2018-06-20T00:52:42.880Z,65.94
2018-06-20T00:53:14.072Z,66.56
2018-06-20T00:53:45.244Z,66.71
2018-06-20T00:54:16.490Z,66.46
2018-06-20T00:54:47.672Z,67.03
2018-06-20T00:55:18.893Z,67.14
2018-06-20T00:55:50.076Z,67.34
2018-06-20T00:56:21.256Z,66.84
2018-06-20T00:56:52.491Z,67.05
2018-06-20T00:57:23.725Z,67.36
2018-06-20T00:57:54.909Z,66.86
2018-06-20T00:58:26.087Z,66.96
2018-06-20T00:58:57.267Z,66.54
2018-06-20T00:59:28.443Z,66.86
2018-06-20T00:59:59.635Z,66.70
2018-06-20T01:00:30.845Z,66.79
2018-06-20T01:01:02.027Z,66.54
2018-06-20T01:01:33.265Z,67.22
2018-06-20T01:02:04.452Z,67.43
2018-06-20T01:02:35.644Z,66.77
2018-06-20T01:03:06.873Z,67.19
2018-06-20T01:03:38.056Z,67.24
2018-06-20T01:04:09.231Z,66.87
2018-06-20T01:04:40.456Z,67.15
2018-06-20T01:05:11.630Z,66.81
2018-06-20T01:05:42.874Z,67.25
2018-06-20T01:06:14.074Z,66.82
2018-06-20T01:06:45.248Z,67.09
2018-06-20T01:07:16.415Z,66.59
2018-06-20T01:07:47.608Z,66.68
2018-06-20T01:08:18.784Z,66.98
2018-06-20T01:08:50.045Z,66.53
2018-06-20T01:09:21.228Z,66.72
2018-06-20T01:09:52.413Z,66.72
2018-06-20T01:10:23.599Z,67.12
2018-06-20T01:10:54.791Z,67.15
2018-06-20T01:11:25.968Z,66.67
2018-06-20T01:11:57.247Z,66.82
2018-06-20T01:12:28.357Z,67.33
2018-06-20T01:12:59.589Z,67.50
2018-06-20T01:13:30.809Z,67.72
2018-06-20T01:14:02.024Z,67.34
2018-06-20T01:14:33.202Z,67.84
2018-06-20T01:15:04.391Z,67.54
2018-06-20T01:15:35.572Z,68.00
2018-06-20T01:16:06.804Z,67.68
2018-06-20T01:16:37.996Z,68.43
2018-06-20T01:17:09.173Z,68.61
2018-06-20T01:17:40.349Z,68.02
2018-06-20T01:18:11.523Z,68.56
2018-06-20T01:18:42.716Z,68.23
2018-06-20T01:19:13.920Z,68.75
2018-06-20T01:19:45.085Z,68.67
2018-06-20T01:20:16.269Z,68.25
2018-06-20T01:20:47.450Z,68.89
2018-06-20T01:21:18.635Z,68.94
2018-06-20T01:21:49.812Z,68.32
2018-06-20T01:22:21.040Z,68.90
2018-06-20T01:22:52.220Z,69.06
2018-06-20T01:23:23.445Z,68.38
2018-06-20T01:23:54.628Z,68.73
2018-06-20T01:24:25.884Z,69.05
2018-06-20T01:24:57.097Z,68.46
2018-06-20T01:25:28.280Z,68.44
2018-06-20T01:25:59.454Z,69.17
2018-06-20T01:26:30.629Z,69.08
2018-06-20T01:27:01.870Z,69.30
2018-06-20T01:27:33.101Z,69.37
2018-06-20T01:28:04.337Z,69.78
2018-06-20T01:28:35.576Z,69.31
2018-06-20T01:29:06.818Z,69.79
2018-06-20T01:29:38.027Z,70.00
2018-06-20T01:30:09.249Z,69.60
2018-06-20T01:30:40.476Z,69.62
2018-06-20T01:31:11.665Z,69.89
2018-06-20T01:31:42.845Z,69.94
2018-06-20T01:32:14.026Z,70.47
2018-06-20T01:32:45.257Z,69.93
2018-06-20T01:33:16.441Z,70.10
2018-06-20T01:33:47.620Z,70.47
2018-06-20T01:34:18.861Z,70.49
2018-06-20T01:34:50.094Z,70.06
2018-06-20T01:35:21.269Z,70.57
2018-06-20T01:35:52.445Z,70.73
2018-06-20T01:36:23.681Z,70.37
2018-06-20T01:36:54.861Z,70.49
2018-06-20T01:37:26.037Z,70.34
2018-06-20T01:37:57.247Z,70.66
2018-06-20T01:38:28.469Z,70.10
2018-06-20T01:38:59.652Z,70.46
2018-06-20T01:39:30.941Z,70.34
2018-06-20T01:40:02.124Z,70.40
2018-06-20T01:40:33.300Z,69.84
2018-06-20T01:41:04.557Z,70.14
2018-06-20T01:41:35.749Z,70.43
2018-06-20T01:42:06.923Z,70.21
2018-06-20T01:42:38.096Z,70.31
2018-06-20T01:43:09.318Z,70.57
2018-06-20T01:43:40.492Z,70.42
2018-06-20T01:44:11.722Z,69.91
2018-06-20T01:44:42.942Z,70.54
2018-06-20T01:45:14.146Z,70.51
2018-06-20T01:45:45.328Z,70.76
2018-06-20T01:46:16.504Z,70.66
2018-06-20T01:46:47.683Z,70.94
2018-06-20T01:47:18.868Z,71.01
2018-06-20T01:47:50.098Z,71.49
2018-06-20T01:48:21.292Z,71.27
2018-06-20T01:48:52.506Z,71.19
2018-06-20T01:49:23.673Z,71.71
2018-06-20T01:49:54.853Z,71.77
2018-06-20T01:50:26.077Z,71.15
2018-06-20T01:50:57.312Z,71.57
2018-06-20T01:51:28.532Z,71.35
2018-06-20T01:51:59.704Z,71.22
2018-06-20T01:52:30.928Z,71.79
2018-06-20T01:53:02.169Z,71.64
2018-06-20T01:53:33.404Z,70.93
2018-06-20T01:54:04.641Z,70.88
2018-06-20T01:54:35.875Z,70.70
2018-06-20T01:55:07.095Z,71.10
2018-06-20T01:55:38.277Z,71.18
2018-06-20T01:56:09.512Z,71.03
2018-06-20T01:56:40.692Z,70.82
2018-06-20T01:57:11.878Z,71.04
2018-06-20T01:57:43.049Z,70.43
2018-06-20T01:58:14.221Z,70.95
2018-06-20T01:58:45.403Z,70.66
2018-06-20T01:59:16.576Z,70.29
2018-06-20T01:59:47.760Z,70.54
2018-06-20T02:00:18.970Z,70.38
2018-06-20T02:00:50.149Z,69.96
2018-06-20T02:01:21.377Z,70.21
2018-06-20T02:01:52.572Z,70.64
2018-06-20T02:02:23.792Z,70.41
2018-06-20T02:02:55.029Z,70.34
2018-06-20T02:03:26.211Z,70.70
2018-06-20T02:03:57.384Z,70.79
2018-06-20T02:04:28.613Z,71.31
2018-06-20T02:04:59.851Z,71.28
2018-06-20T02:05:31.077Z,71.48
2018-06-20T02:06:02.264Z,70.89
2018-06-20T02:06:33.490Z,70.81
2018-06-20T02:07:04.676Z,71.12
2018-06-20T02:07:35.931Z,71.46
2018-06-20T02:08:07.116Z,70.97
2018-06-20T02:08:38.302Z,71.70
2018-06-20T02:09:09.481Z,71.09
2018-06-20T02:09:40.648Z,70.93
2018-06-20T02:10:11.877Z,71.25
2018-06-20T02:10:43.057Z,70.94
2018-06-20T02:11:14.280Z,70.60
2018-06-20T02:11:45.549Z,71.18
2018-06-20T02:12:16.781Z,70.43
2018-06-20T02:12:47.964Z,70.87
2018-06-20T02:13:19.239Z,70.67
2018-06-20T02:13:50.420Z,70.45
2018-06-20T02:14:21.654Z,70.59
2018-06-20T02:14:52.840Z,70.15
2018-06-20T02:15:24.075Z,71.07
2018-06-20T02:15:55.296Z,70.45
2018-06-20T02:16:26.512Z,71.25
2018-06-20T02:16:57.752Z,70.61
2018-06-20T02:17:28.982Z,70.04
2018-06-20T02:18:00.172Z,69.99
2018-06-20T02:18:31.363Z,70.37
2018-06-20T02:19:02.541Z,69.87
2018-06-20T02:19:33.726Z,69.80
2018-06-20T02:20:04.903Z,70.52
2018-06-20T02:20:36.139Z,69.94
2018-06-20T02:21:07.400Z,70.84
2018-06-20T02:21:38.593Z,71.18
2018-06-20T02:22:09.820Z,70.85
2018-06-20T02:22:41.013Z,71.09
2018-06-20T02:23:12.187Z,71.72
2018-06-20T02:23:43.355Z,70.83
2018-06-20T02:24:14.578Z,71.60
2018-06-20T02:24:45.766Z,71.46
2018-06-20T02:25:16.976Z,71.67
2018-06-20T02:25:48.147Z,71.80
2018-06-20T02:26:19.381Z,71.67
2018-06-20T02:26:50.574Z,72.06
2018-06-20T02:27:21.738Z,71.94
2018-06-20T02:27:52.960Z,72.25
2018-06-20T02:28:24.140Z,71.87
2018-06-20T02:28:55.317Z,72.33
2018-06-20T02:29:26.541Z,72.40
2018-06-20T02:29:57.729Z,72.45
2018-06-20T02:30:28.937Z,72.42
2018-06-20T02:31:00.163Z,72.40
2018-06-20T02:31:31.384Z,71.45
2018-06-20T02:32:02.553Z,71.50
2018-06-20T02:32:33.769Z,71.12
2018-06-20T02:33:05.001Z,71.00
2018-06-20T02:33:36.188Z,71.33
2018-06-20T02:34:07.373Z,70.96
2018-06-20T02:34:38.598Z,71.14
2018-06-20T02:35:09.812Z,70.90
2018-06-20T02:35:40.985Z,70.38
2018-06-20T02:36:12.217Z,70.94
2018-06-20T02:36:43.461Z,70.85
2018-06-20T02:37:14.657Z,70.03
2018-06-20T02:37:45.894Z,69.65
2018-06-20T02:38:17.080Z,69.70
2018-06-20T02:38:48.361Z,70.22
2018-06-20T02:39:19.593Z,70.33
2018-06-20T02:39:50.830Z,69.83
2018-06-20T02:40:22.051Z,69.73
2018-06-20T02:40:53.265Z,70.42
2018-06-20T02:41:24.497Z,70.04
2018-06-20T02:41:55.684Z,69.61
2018-06-20T02:42:26.905Z,69.78
2018-06-20T02:42:58.081Z,69.81
2018-06-20T02:43:29.257Z,69.56
2018-06-20T02:44:01.198Z,69.46
2018-06-20T02:44:32.434Z,68.80
2018-06-20T02:45:03.629Z,69.50
2018-06-20T02:45:34.797Z,68.68
2018-06-20T02:46:06.335Z,68.34
2018-06-20T02:46:37.557Z,68.64
2018-06-20T02:47:08.755Z,68.12
2018-06-20T02:47:39.928Z,68.13
2018-06-20T02:48:11.153Z,68.89
2018-06-20T02:48:42.349Z,67.95
2018-06-20T02:49:13.573Z,68.05
2018-06-20T02:49:44.754Z,67.60
2018-06-20T02:50:15.990Z,67.77
2018-06-20T02:50:47.222Z,67.47
2018-06-20T02:51:18.413Z,67.25
2018-06-20T02:51:49.590Z,67.20
2018-06-20T02:52:20.771Z,67.67
2018-06-20T02:52:52.105Z,67.27
2018-06-20T02:53:23.227Z,67.16
2018-06-20T02:53:54.405Z,67.17
2018-06-20T02:54:25.669Z,67.49
2018-06-20T02:54:56.853Z,67.53
2018-06-20T02:55:28.045Z,67.89
2018-06-20T02:55:59.225Z,68.13
2018-06-20T02:56:30.452Z,67.75
2018-06-20T02:57:01.637Z,67.81
2018-06-20T02:57:32.869Z,68.21
2018-06-20T02:58:04.093Z,67.69
2018-06-20T02:58:35.272Z,67.91
2018-06-20T02:59:06.440Z,67.67
2018-06-20T02:59:37.665Z,68.38
2018-06-20T03:00:08.909Z,67.75
2018-06-20T03:00:40.142Z,68.25
2018-06-20T03:01:11.376Z,67.64
2018-06-20T03:01:42.580Z,68.34
2018-06-20T03:02:13.761Z,68.04
2018-06-20T03:02:44.944Z,68.23
2018-06-20T03:03:16.160Z,68.24
2018-06-20T03:03:47.388Z,67.49
2018-06-20T03:04:18.572Z,67.35
2018-06-20T03:04:49.751Z,67.07
2018-06-20T03:05:20.945Z,67.15
2018-06-20T03:05:52.168Z,66.61
2018-06-20T03:06:23.344Z,66.40
2018-06-20T03:06:54.516Z,65.93
2018-06-20T03:07:25.700Z,65.61
2018-06-20T03:07:56.881Z,65.22
2018-06-20T03:08:28.060Z,65.23
2018-06-20T03:08:59.348Z,65.24
2018-06-20T03:09:30.536Z,64.88
2018-06-20T03:10:01.705Z,64.30
2018-06-20T03:10:32.945Z,64.77
2018-06-20T03:11:04.177Z,64.35
2018-06-20T03:11:35.357Z,64.91
2018-06-20T03:12:06.597Z,63.83
2018-06-20T03:12:37.792Z,64.47
2018-06-20T03:13:08.973Z,63.47
2018-06-20T03:13:40.169Z,63.82
2018-06-20T03:14:11.389Z,63.18
2018-06-20T03:14:42.574Z,63.60
2018-06-20T03:15:13.757Z,63.35
2018-06-20T03:15:44.937Z,63.12
2018-06-20T03:16:16.154Z,62.82
2018-06-20T03:16:47.338Z,63.15
2018-06-20T03:17:18.512Z,62.12
2018-06-20T03:17:49.684Z,62.08
2018-06-20T03:18:20.864Z,62.17
2018-06-20T03:18:52.044Z,62.25
2018-06-20T03:19:23.253Z,62.09
2018-06-20T03:19:54.507Z,62.49
2018-06-20T03:20:25.705Z,61.44
2018-06-20T03:20:56.937Z,61.31
2018-06-20T03:21:28.244Z,61.85
2018-06-20T03:21:59.484Z,60.85
2018-06-20T03:22:30.657Z,60.70
2018-06-20T03:23:01.892Z,60.16
2018-06-20T03:23:33.090Z,60.47
2018-06-20T03:24:04.268Z,60.30
2018-06-20T03:24:35.454Z,59.78
2018-06-20T03:25:06.672Z,60.02
2018-06-20T03:25:37.898Z,60.03
2018-06-20T03:26:09.080Z,58.97
2018-06-20T03:26:40.314Z,58.56
2018-06-20T03:27:11.511Z,59.09
2018-06-20T03:27:42.719Z,57.55
2018-06-20T03:28:13.890Z,57.92
2018-06-20T03:28:45.072Z,57.85
2018-06-20T03:29:16.244Z,56.93
2018-06-20T03:29:47.424Z,57.26
2018-06-20T03:30:18.644Z,56.96
2018-06-20T03:30:49.870Z,57.09
2018-06-20T03:31:21.107Z,56.40
2018-06-20T03:31:52.303Z,56.17
2018-06-20T03:32:23.545Z,56.78
2018-06-20T03:32:54.774Z,55.31
2018-06-20T03:33:25.954Z,55.94
2018-06-20T03:33:57.131Z,55.56
2018-06-20T03:34:28.296Z,55.41
2018-06-20T03:34:59.475Z,55.23
2018-06-20T03:35:30.720Z,54.93
2018-06-20T03:36:01.899Z,54.35
2018-06-20T03:36:33.077Z,54.86
2018-06-20T03:37:04.240Z,54.04
2018-06-20T03:37:35.424Z,54.11
2018-06-20T03:38:06.628Z,54.00
2018-06-20T03:38:37.788Z,53.50
2018-06-20T03:39:08.992Z,52.88
2018-06-20T03:39:40.152Z,53.26
2018-06-20T03:40:11.322Z,53.16
2018-06-20T03:40:42.540Z,53.20
2018-06-20T03:41:13.721Z,52.79
2018-06-20T03:41:44.889Z,52.02
2018-06-20T03:42:16.100Z,51.69
2018-06-20T03:42:47.280Z,51.85
2018-06-20T03:43:18.480Z,50.41
2018-06-20T03:43:49.695Z,49.61
2018-06-20T03:44:20.872Z,49.89
2018-06-20T03:44:52.092Z,50.23
2018-06-20T03:45:23.273Z,50.51
2018-06-20T03:45:54.495Z,50.28
2018-06-20T03:46:25.681Z,49.79
2018-06-20T03:46:56.897Z,50.14
2018-06-20T03:47:28.133Z,49.21
2018-06-20T03:47:59.357Z,49.33
2018-06-20T03:48:30.638Z,49.28
2018-06-20T03:49:01.827Z,49.40
2018-06-20T03:49:32.991Z,48.93
2018-06-20T03:50:04.164Z,49.26
2018-06-20T03:50:35.346Z,48.63
2018-06-20T03:51:06.529Z,48.61
2018-06-20T03:51:37.754Z,48.01
2018-06-20T03:52:08.932Z,48.02
2018-06-20T03:52:40.121Z,47.95
2018-06-20T03:53:11.352Z,48.57
2018-06-20T03:53:42.566Z,47.99
2018-06-20T03:54:13.751Z,48.93
2018-06-20T03:54:44.973Z,48.67
2018-06-20T03:55:16.160Z,50.30
2018-06-20T03:55:47.333Z,50.04
2018-06-20T03:56:18.507Z,51.34
2018-06-20T03:56:49.796Z,51.31
2018-06-20T03:57:20.976Z,51.60
2018-06-20T03:57:52.217Z,52.51
2018-06-20T03:58:23.489Z,51.45
2018-06-20T03:58:54.669Z,51.16
2018-06-20T03:59:25.850Z,51.54
2018-06-20T03:59:57.025Z,51.36
2018-06-20T04:00:28.194Z,50.04
2018-06-20T04:00:59.360Z,49.41
2018-06-20T04:01:30.583Z,48.83
2018-06-20T04:02:01.786Z,47.95
2018-06-20T04:02:33.017Z,47.84
2018-06-20T04:03:04.205Z,47.05
2018-06-20T04:03:35.420Z,45.90
2018-06-20T04:04:06.589Z,46.27
2018-06-20T04:04:37.756Z,46.97
2018-06-20T04:05:08.983Z,47.75
2018-06-20T04:05:40.173Z,47.56
2018-06-20T04:06:11.348Z,47.52
2018-06-20T04:06:42.520Z,48.51
2018-06-20T04:07:13.684Z,48.48
2018-06-20T04:07:44.866Z,49.03
2018-06-20T04:08:16.045Z,48.77
2018-06-20T04:08:47.262Z,49.58
2018-06-20T04:09:18.436Z,48.50
2018-06-20T04:09:49.649Z,48.66
2018-06-20T04:10:20.835Z,47.84
2018-06-20T04:10:52.004Z,47.89
2018-06-20T04:11:23.180Z,46.85
2018-06-20T04:11:54.424Z,46.12
2018-06-20T04:12:25.641Z,46.49
2018-06-20T04:12:56.819Z,46.63
2018-06-20T04:13:28.000Z,45.45
2018-06-20T04:13:59.173Z,46.13
2018-06-20T04:14:30.341Z,47.20
2018-06-20T04:15:01.561Z,46.83
2018-06-20T04:15:32.741Z,46.64
2018-06-20T04:16:03.970Z,47.70
2018-06-20T04:16:35.215Z,47.49
2018-06-20T04:17:06.415Z,48.69
2018-06-20T04:17:37.615Z,48.56
2018-06-20T04:18:08.789Z,48.48
2018-06-20T04:18:40.018Z,48.10
2018-06-20T04:19:11.230Z,47.55
2018-06-20T04:19:42.400Z,46.58
2018-06-20T04:20:13.565Z,46.56
2018-06-20T04:20:44.742Z,46.22
2018-06-20T04:21:15.920Z,46.88
2018-06-20T04:21:47.093Z,47.40
2018-06-20T04:22:18.353Z,48.28
2018-06-20T04:22:49.589Z,48.22
2018-06-20T04:23:20.768Z,48.51
2018-06-20T04:23:51.993Z,48.37
2018-06-20T04:24:23.224Z,47.56
2018-06-20T04:24:54.412Z,47.61
2018-06-20T04:25:25.637Z,47.80
2018-06-20T04:25:56.875Z,47.53
2018-06-20T04:26:28.060Z,46.93
2018-06-20T04:26:59.240Z,46.25
2018-06-20T04:27:30.466Z,45.77
2018-06-20T04:28:01.747Z,44.16
2018-06-20T04:28:32.981Z,44.71
2018-06-20T04:29:04.174Z,43.92
2018-06-20T04:29:35.341Z,44.51
2018-06-20T04:30:06.520Z,44.01
2018-06-20T04:30:37.696Z,44.43
2018-06-20T04:31:08.874Z,44.78
2018-06-20T04:31:40.076Z,44.63
2018-06-20T04:32:11.608Z,45.14
2018-06-20T04:32:42.825Z,45.48
2018-06-20T04:33:14.010Z,45.80
2018-06-20T04:33:45.198Z,45.90
2018-06-20T04:34:16.385Z,44.69
2018-06-20T04:34:47.629Z,44.86
2018-06-20T04:35:18.842Z,43.53
2018-06-20T04:35:50.024Z,43.23
2018-06-20T04:36:21.197Z,42.47
2018-06-20T04:36:52.382Z,42.07
2018-06-20T04:37:23.568Z,42.21
2018-06-20T04:37:54.815Z,41.98
2018-06-20T04:38:26.034Z,41.70
2018-06-20T04:38:57.230Z,42.28
2018-06-20T04:39:28.460Z,43.07
2018-06-20T04:39:59.694Z,43.97
2018-06-20T04:40:30.933Z,43.99
2018-06-20T04:41:02.117Z,44.87
2018-06-20T04:41:33.300Z,44.94
2018-06-20T04:42:04.530Z,45.74
2018-06-20T04:42:35.712Z,46.24
2018-06-20T04:43:06.937Z,44.72
2018-06-20T04:43:38.161Z,45.26
2018-06-20T04:44:09.344Z,44.59
2018-06-20T04:44:40.630Z,43.95
2018-06-20T04:45:11.773Z,43.69
2018-06-20T04:45:42.985Z,42.86
2018-06-20T04:46:14.214Z,42.45
2018-06-20T04:46:45.452Z,41.98
2018-06-20T04:47:16.623Z,41.58
2018-06-20T04:47:47.855Z,41.54
2018-06-20T04:48:19.047Z,41.07
2018-06-20T04:48:50.229Z,41.57
2018-06-20T04:49:21.407Z,41.08
2018-06-20T04:49:52.588Z,40.78
2018-06-20T04:50:23.763Z,40.81
2018-06-20T04:50:54.958Z,41.27
2018-06-20T04:51:26.144Z,41.34
2018-06-20T04:51:57.413Z,41.73
2018-06-20T04:52:28.632Z,42.97
2018-06-20T04:52:59.833Z,44.23
2018-06-20T04:53:31.017Z,43.98
2018-06-20T04:54:02.193Z,44.79
2018-06-20T04:54:33.412Z,44.69
2018-06-20T04:55:04.634Z,45.20
2018-06-20T04:55:35.840Z,45.48
2018-06-20T04:56:07.086Z,45.49
2018-06-20T04:56:38.295Z,45.10
2018-06-20T04:57:09.534Z,44.43
2018-06-20T04:57:40.756Z,44.15
2018-06-20T04:58:11.937Z,43.85
2018-06-20T04:58:43.124Z,43.36
2018-06-20T04:59:14.345Z,42.32
2018-06-20T04:59:45.525Z,41.70
2018-06-20T05:00:16.748Z,41.14
2018-06-20T05:00:47.932Z,41.13
2018-06-20T05:01:19.100Z,41.33
2018-06-20T05:01:50.345Z,42.15
2018-06-20T05:02:21.541Z,42.53
2018-06-20T05:02:52.752Z,43.28
2018-06-20T05:03:23.932Z,42.80
2018-06-20T05:03:55.105Z,42.81
2018-06-20T05:04:26.304Z,43.20
2018-06-20T05:04:57.528Z,43.56
2018-06-20T05:05:28.700Z,42.73
2018-06-20T05:05:59.868Z,42.00
2018-06-20T05:06:31.045Z,41.72
2018-06-20T05:07:02.228Z,40.87
2018-06-20T05:07:33.405Z,40.35
2018-06-20T05:08:04.641Z,38.84
2018-06-20T05:08:35.873Z,38.60
2018-06-20T05:09:07.104Z,38.21
2018-06-20T05:09:38.299Z,37.33
2018-06-20T05:10:09.505Z,37.41
2018-06-20T05:10:40.734Z,37.35
2018-06-20T05:11:11.955Z,36.90
2018-06-20T05:11:43.125Z,37.15
2018-06-20T05:12:14.304Z,36.99
2018-06-20T05:12:45.480Z,36.47
2018-06-20T05:13:16.713Z,35.64
2018-06-20T05:13:47.897Z,35.71
2018-06-20T05:14:19.069Z,35.13
2018-06-20T05:14:50.313Z,35.03
2018-06-20T05:15:21.541Z,33.91
2018-06-20T05:15:52.708Z,34.58
2018-06-20T05:16:23.884Z,34.64
2018-06-20T05:16:55.108Z,34.20
2018-06-20T05:17:26.288Z,33.82
2018-06-20T05:17:57.465Z,33.79
2018-06-20T05:18:28.685Z,33.25
2018-06-20T05:18:59.874Z,33.60
2018-06-20T05:19:31.097Z,33.17
2018-06-20T05:20:02.276Z,33.72
2018-06-20T05:20:33.481Z,33.74
2018-06-20T05:21:04.735Z,33.45
2018-06-20T05:21:35.916Z,33.14
2018-06-20T05:22:07.086Z,32.28
2018-06-20T05:22:38.269Z,32.59
2018-06-20T05:23:09.517Z,32.17
2018-06-20T05:23:40.705Z,32.24
2018-06-20T05:24:11.926Z,32.73
2018-06-20T05:24:43.108Z,32.72
2018-06-20T05:25:14.292Z,32.49
2018-06-20T05:25:45.477Z,33.13
2018-06-20T05:26:16.732Z,33.50
2018-06-20T05:26:47.912Z,32.72
2018-06-20T05:27:19.168Z,33.11
2018-06-20T05:27:50.409Z,33.73
2018-06-20T05:28:21.600Z,32.99
2018-06-20T05:28:52.779Z,32.84
2018-06-20T05:29:23.948Z,32.57
2018-06-20T05:29:55.210Z,32.63
2018-06-20T05:30:26.451Z,32.88
2018-06-20T05:30:57.638Z,32.48
2018-06-20T05:31:28.820Z,32.71
2018-06-20T05:31:59.997Z,32.18
2018-06-20T05:32:31.169Z,32.88
2018-06-20T05:33:02.394Z,32.61
2018-06-20T05:33:33.572Z,33.17
2018-06-20T05:34:04.797Z,32.99
2018-06-20T05:34:36.045Z,32.73
2018-06-20T05:35:07.245Z,32.46
2018-06-20T05:35:38.424Z,31.80
2018-06-20T05:36:09.605Z,32.37
2018-06-20T05:36:40.783Z,32.83
2018-06-20T05:37:12.016Z,32.95
2018-06-20T05:37:43.262Z,32.99
2018-06-20T05:38:14.647Z,33.01
2018-06-20T05:38:45.834Z,33.03
2018-06-20T05:39:17.021Z,33.13
2018-06-20T05:39:48.209Z,33.39
2018-06-20T05:40:19.441Z,33.58
2018-06-20T05:40:50.682Z,33.71
2018-06-20T05:41:21.888Z,33.87
2018-06-20T05:41:53.121Z,33.65
2018-06-20T05:42:24.312Z,33.69
2018-06-20T05:42:55.489Z,32.90
2018-06-20T05:43:26.680Z,32.94
2018-06-20T05:43:57.857Z,33.09
2018-06-20T05:44:29.040Z,33.10
2018-06-20T05:45:00.205Z,33.26
2018-06-20T05:45:31.383Z,33.03
2018-06-20T05:46:02.617Z,33.13
2018-06-20T05:46:33.900Z,33.05
2018-06-20T05:47:05.160Z,33.12
2018-06-20T05:47:36.365Z,33.83
2018-06-20T05:48:07.620Z,33.73
2018-06-20T05:48:38.810Z,33.77
2018-06-20T05:49:09.977Z,34.10
2018-06-20T05:49:41.205Z,34.43
2018-06-20T05:50:12.457Z,34.58
2018-06-20T05:50:43.708Z,34.11
2018-06-20T05:51:14.948Z,34.28
2018-06-20T05:51:46.233Z,34.73
2018-06-20T05:52:17.430Z,34.27
2018-06-20T05:52:48.605Z,34.22
2018-06-20T05:53:19.865Z,34.38
2018-06-20T05:53:51.133Z,33.93
2018-06-20T05:54:22.350Z,34.50
2018-06-20T05:54:53.529Z,34.85
2018-06-20T05:55:24.700Z,35.38
2018-06-20T05:55:55.892Z,34.33
2018-06-20T05:56:27.114Z,34.59
2018-06-20T05:56:58.337Z,36.04
2018-06-20T05:57:29.517Z,35.28
2018-06-20T05:58:00.777Z,35.85
2018-06-20T05:58:31.997Z,34.99
2018-06-20T05:59:03.189Z,34.56
2018-06-20T05:59:34.377Z,34.88
2018-06-20T06:00:05.556Z,35.18
2018-06-20T06:00:36.734Z,35.20
2018-06-20T06:01:07.911Z,35.99
2018-06-20T06:01:39.148Z,35.76
2018-06-20T06:02:10.445Z,35.20
2018-06-20T06:02:41.641Z,34.78
2018-06-20T06:03:12.837Z,35.57
2018-06-20T06:03:44.016Z,35.48
2018-06-20T06:04:15.205Z,36.19
2018-06-20T06:04:46.390Z,36.31
2018-06-20T06:05:17.860Z,36.34
2018-06-20T06:05:49.082Z,36.27
2018-06-20T06:06:20.271Z,35.98
2018-06-20T06:06:51.513Z,36.29
2018-06-20T06:07:22.744Z,36.34
2018-06-20T06:07:53.925Z,36.05
2018-06-20T06:08:25.122Z,35.66
2018-06-20T06:08:56.701Z,36.13
2018-06-20T06:09:27.880Z,35.85
2018-06-20T06:09:59.076Z,36.27
2018-06-20T06:10:30.329Z,36.57
2018-06-20T06:11:01.544Z,37.46
2018-06-20T06:11:32.775Z,37.23
2018-06-20T06:12:04.041Z,37.20
2018-06-20T06:12:35.292Z,37.33
2018-06-20T06:13:06.536Z,37.68
2018-06-20T06:13:37.735Z,37.89
2018-06-20T06:14:08.936Z,37.41
2018-06-20T06:14:40.121Z,37.36
2018-06-20T06:15:11.389Z,37.90
2018-06-20T06:15:42.572Z,37.07
2018-06-20T06:16:13.761Z,37.58
2018-06-20T06:16:44.964Z,38.25
2018-06-20T06:17:16.161Z,38.41
2018-06-20T06:17:47.383Z,38.32
2018-06-20T06:18:18.609Z,38.77
2018-06-20T06:18:49.869Z,38.42
2018-06-20T06:19:21.123Z,38.18
2018-06-20T06:19:52.353Z,38.00
2018-06-20T06:20:23.591Z,38.30
2018-06-20T06:20:54.782Z,38.28
2018-06-20T06:21:25.979Z,38.06
2018-06-20T06:21:57.155Z,37.69
2018-06-20T06:22:28.340Z,38.27
2018-06-20T06:22:59.622Z,38.13
2018-06-20T06:23:30.864Z,38.18
2018-06-20T06:24:02.108Z,37.63
2018-06-20T06:24:33.304Z,37.15
2018-06-20T06:25:04.493Z,37.45
2018-06-20T06:25:35.668Z,37.96
2018-06-20T06:26:06.849Z,38.17
2018-06-20T06:26:38.914Z,38.76
2018-06-20T06:27:10.102Z,38.61
2018-06-20T06:27:41.329Z,38.21
2018-06-20T06:28:12.558Z,37.96
2018-06-20T06:28:43.784Z,38.29
2018-06-20T06:29:15.017Z,38.99
2018-06-20T06:29:46.201Z,38.90
2018-06-20T06:30:17.414Z,38.91
2018-06-20T06:30:48.598Z,38.11
2018-06-20T06:31:19.810Z,38.36
2018-06-20T06:31:51.042Z,38.20
2018-06-20T06:32:22.227Z,37.25
2018-06-20T06:32:53.461Z,37.23
2018-06-20T06:33:24.657Z,37.67
2018-06-20T06:33:55.870Z,37.73
2018-06-20T06:34:27.102Z,37.43
2018-06-20T06:34:58.341Z,36.36
2018-06-20T06:35:29.585Z,36.54
2018-06-20T06:36:00.782Z,36.48
2018-06-20T06:36:32.037Z,36.73
2018-06-20T06:37:03.242Z,36.45
2018-06-20T06:37:34.425Z,36.58
2018-06-20T06:38:05.654Z,35.73
2018-06-20T06:38:36.897Z,35.76
2018-06-20T06:39:08.144Z,35.54
2018-06-20T06:39:39.319Z,35.43
2018-06-20T06:40:10.494Z,36.12
2018-06-20T06:40:41.672Z,35.49
2018-06-20T06:41:13.569Z,36.15
2018-06-20T06:41:44.793Z,35.25